Time;durP1;ratioP1;P1;durP2;ratioP2;P2;SDS_P1;SDS_P2;PMS_P1;PMS_P2;Temp;Humidity;BMP_temperature;BMP_pressure;BME280_temperature;BME280_humidity;BME280_pressure;Samples;Min_cycle;Max_cycle;Signal;HPM_P1;HPM_P2
2023/11/02 00:01:28;;;;;;;0.00;0.00;;;;;;;-144.99;100.00;67352.69;4972512;28;20266;-82
2023/11/02 00:03:54;;;;;;;0.00;0.00;;;;;;;-144.99;100.00;67352.69;4970833;28;20201;-82
2023/11/02 00:06:19;;;;;;;0.00;0.00;;;;;;;-144.99;100.00;67352.69;4971392;28;20235;-82
2023/11/02 00:09:04;;;;;;;0.00;0.00;;;;;;;-144.99;100.00;67352.69;4971586;28;20221;-82
2023/11/02 00:11:49;;;;;;;0.00;0.00;;;;;;;-144.99;100.00;67352.69;4970814;28;20385;-82
2023/11/02 00:14:16;;;;;;;0.30;0.23;;;;;;;-144.99;100.00;67352.69;4972501;28;20642;-82
2023/11/02 00:16:42;;;;;;;0.00;0.00;;;;;;;-144.99;100.00;67352.69;4972979;28;20236;-82
2023/11/02 00:21:42;;;;;;;0.00;0.00;;;;;;;-144.99;100.00;67352.69;4975495;28;20228;-80
2023/11/02 00:24:08;;;;;;;1.13;0.50;;;;;;;-144.99;100.00;67352.69;4984779;28;20541;-79
2023/11/02 00:26:33;;;;;;;0.00;0.00;;;;;;;-144.99;100.00;67352.69;4987185;28;20180;-79
2023/11/02 00:28:58;;;;;;;0.10;0.10;;;;;;;-144.99;100.00;67352.69;4983808;28;20209;-79
2023/11/02 00:31:24;;;;;;;0.00;0.00;;;;;;;-144.99;100.00;67352.69;5028679;28;20268;-79
2023/11/02 00:33:49;;;;;;;0.63;0.63;;;;;;;-144.99;100.00;67352.69;5022342;28;20200;-79
2023/11/02 00:36:15;;;;;;;0.00;0.00;;;;;;;-144.99;100.00;67352.69;4979365;28;20253;-79
2023/11/02 00:38:41;;;;;;;0.00;0.00;;;;;;;-144.99;100.00;67352.69;5023475;28;20300;-78
2023/11/02 00:41:07;;;;;;;0.00;0.00;;;;;;;-144.99;100.00;67352.69;5027830;28;20784;-79
2023/11/02 00:43:32;;;;;;;0.00;0.00;;;;;;;-144.99;100.00;67352.69;5018755;28;20189;-79
2023/11/02 00:45:57;;;;;;;0.00;0.00;;;;;;;-144.99;100.00;67352.69;5017863;28;20186;-79
2023/11/02 00:48:27;;;;;;;0.00;0.00;;;;;;;-144.99;100.00;67352.69;5029670;28;20205;-78
2023/11/02 00:51:01;;;;;;;0.00;0.00;;;;;;;-144.99;100.00;67352.69;5028029;28;20203;-78
2023/11/02 00:53:26;;;;;;;0.00;0.00;;;;;;;-144.99;100.00;67352.69;5024273;28;20190;-78
2023/11/02 00:55:52;;;;;;;0.00;0.00;;;;;;;-144.99;100.00;67352.69;4999780;28;20186;-79
2023/11/02 00:58:26;;;;;;;0.00;0.00;;;;;;;-144.99;100.00;67352.69;4992837;28;20247;-77
2023/11/02 01:00:52;;;;;;;0.00;0.00;;;;;;;-144.99;100.00;67352.69;5034902;28;20480;-78
2023/11/02 01:03:19;;;;;;;0.00;0.00;;;;;;;-144.99;100.00;67352.69;4993258;28;20186;-78
2023/11/02 01:05:44;;;;;;;0.00;0.00;;;;;;;-144.99;100.00;67352.69;5035579;28;20178;-79
2023/11/02 01:08:13;;;;;;;0.00;0.00;;;;;;;-144.99;100.00;67352.69;5023240;28;20281;-79
2023/11/02 01:10:40;;;;;;;0.00;0.00;;;;;;;-144.99;100.00;67352.69;5017517;28;20206;-79
2023/11/02 01:13:13;;;;;;;0.00;0.00;;;;;;;-144.99;100.00;67352.69;5019592;28;20358;-79
2023/11/02 01:16:04;;;;;;;0.00;0.00;;;;;;;-144.99;100.00;67352.69;5022224;28;20217;-79
2023/11/02 01:18:30;;;;;;;0.00;0.00;;;;;;;-144.99;100.00;67352.69;5001528;28;20551;-77
2023/11/02 01:21:06;;;;;;;0.00;0.00;;;;;;;-144.99;100.00;67352.69;5030811;28;20216;-78
2023/11/02 01:23:32;;;;;;;0.00;0.00;;;;;;;-144.99;100.00;67352.69;5020061;28;20189;-79
2023/11/02 01:25:59;;;;;;;0.00;0.00;;;;;;;-144.99;100.00;67352.69;5028054;28;20208;-79
2023/11/02 01:28:51;;;;;;;0.00;0.00;;;;;;;-144.99;100.00;67352.69;5022568;28;20618;-78
2023/11/02 01:31:18;;;;;;;0.00;0.00;;;;;;;-144.99;100.00;67352.69;5016864;28;20213;-78
2023/11/02 01:33:53;;;;;;;0.00;0.00;;;;;;;-144.99;100.00;67352.69;5019695;28;20206;-80
2023/11/02 01:36:28;;;;;;;0.00;0.00;;;;;;;-144.99;100.00;67352.69;5010752;28;20215;-78
2023/11/02 01:39:20;;;;;;;0.00;0.00;;;;;;;-144.99;100.00;67352.69;5024718;28;20201;-78
2023/11/02 01:41:52;;;;;;;0.00;0.00;;;;;;;-144.99;100.00;67352.69;4972750;28;20228;-78
2023/11/02 01:44:39;;;;;;;0.00;0.00;;;;;;;-144.99;100.00;67352.69;5031880;28;20178;-77
2023/11/02 01:47:36;;;;;;;0.00;0.00;;;;;;;-144.99;100.00;67352.69;4997534;28;20272;-77
2023/11/02 01:50:10;;;;;;;0.03;0.00;;;;;;;-144.99;100.00;67352.69;5034913;28;20179;-79
2023/11/02 01:52:51;;;;;;;0.00;0.00;;;;;;;-144.99;100.00;67352.69;5019897;28;20256;-80
2023/11/02 01:55:45;;;;;;;0.00;0.00;;;;;;;-144.99;100.00;67352.69;5021561;28;20608;-81
2023/11/02 01:58:25;;;;;;;0.00;0.00;;;;;;;-144.99;100.00;67352.69;5001094;28;20261;-80
2023/11/02 02:01:09;;;;;;;1.83;0.30;;;;;;;-144.99;100.00;67352.69;5040034;28;20197;-78
2023/11/02 02:03:49;;;;;;;0.00;0.00;;;;;;;-144.99;100.00;67352.69;5021445;28;20512;-80
2023/11/02 02:06:28;;;;;;;0.00;0.00;;;;;;;-144.99;100.00;67352.69;5043448;28;20204;-79
2023/11/02 02:09:14;;;;;;;2.90;0.40;;;;;;;-144.99;100.00;67352.69;5003010;28;20201;-80
2023/11/02 02:11:51;;;;;;;0.27;0.20;;;;;;;-144.99;100.00;67352.69;5026248;28;20185;-79
2023/11/02 02:14:40;;;;;;;0.00;0.00;;;;;;;-144.99;100.00;67352.69;4997965;28;20324;-80
2023/11/02 02:17:22;;;;;;;0.07;0.07;;;;;;;-144.99;100.00;67352.69;4995146;28;20200;-79
2023/11/02 02:20:01;;;;;;;0.00;0.00;;;;;;;-144.99;100.00;67352.69;5024687;28;20300;-80
2023/11/02 02:22:48;;;;;;;0.00;0.00;;;;;;;-144.99;100.00;67352.69;5019158;28;20661;-79
2023/11/02 02:25:13;;;;;;;1.43;0.20;;;;;;;-144.99;100.00;67352.69;5026491;28;20662;-80
2023/11/02 02:27:58;;;;;;;0.10;0.10;;;;;;;-144.99;100.00;67352.69;5018666;28;20245;-79
2023/11/02 02:30:49;;;;;;;0.13;0.00;;;;;;;-144.99;100.00;67352.69;4999393;28;20541;-79
2023/11/02 02:33:30;;;;;;;0.00;0.00;;;;;;;-144.99;100.00;67352.69;5002637;28;20235;-79
2023/11/02 02:36:05;;;;;;;0.00;0.00;;;;;;;-144.99;100.00;67352.69;5044007;28;20182;-80
2023/11/02 02:38:45;;;;;;;0.00;0.00;;;;;;;-144.99;100.00;67352.69;5016591;28;20569;-80
2023/11/02 02:41:15;;;;;;;0.00;0.00;;;;;;;-144.99;100.00;67352.69;5008932;28;20677;-80
2023/11/02 02:43:41;;;;;;;0.00;0.00;;;;;;;-144.99;100.00;67352.69;5009495;28;20261;-80
2023/11/02 02:46:10;;;;;;;0.00;0.00;;;;;;;-144.99;100.00;67352.69;5028682;28;20200;-80
2023/11/02 02:48:37;;;;;;;0.00;0.00;;;;;;;-144.99;100.00;67352.69;5019026;28;20546;-80
2023/11/02 02:51:03;;;;;;;0.00;0.00;;;;;;;-144.99;100.00;67352.69;5039140;28;20189;-80
2023/11/02 02:53:33;;;;;;;12.60;0.97;;;;;;;-144.99;100.00;67352.69;5028972;28;20180;-80
2023/11/02 02:56:09;;;;;;;0.20;0.20;;;;;;;-144.99;100.00;67352.69;5026245;28;20646;-80
2023/11/02 02:58:51;;;;;;;0.00;0.00;;;;;;;-144.99;100.00;67352.69;5044814;28;20201;-80
2023/11/02 03:01:19;;;;;;;0.77;0.73;;;;;;;-144.99;100.00;67352.69;5001311;28;20296;-80
2023/11/02 03:03:46;;;;;;;0.00;0.00;;;;;;;-144.99;100.00;67352.69;5017705;28;20189;-80
2023/11/02 03:06:11;;;;;;;0.00;0.00;;;;;;;-144.99;100.00;67352.69;5031891;28;20537;-80
2023/11/02 03:08:40;;;;;;;0.00;0.00;;;;;;;-144.99;100.00;67352.69;5033707;28;20205;-80
2023/11/02 03:11:08;;;;;;;0.20;0.10;;;;;;;-144.99;100.00;67352.69;5032472;28;20182;-80
2023/11/02 03:13:34;;;;;;;0.00;0.00;;;;;;;-144.99;100.00;67352.69;5021896;28;20181;-79
2023/11/02 03:16:02;;;;;;;0.00;0.00;;;;;;;-144.99;100.00;67352.69;5024192;28;20661;-80
2023/11/02 03:18:33;;;;;;;0.00;0.00;;;;;;;-144.99;100.00;67352.69;5037612;28;20280;-80
2023/11/02 03:20:59;;;;;;;0.00;0.00;;;;;;;-144.99;100.00;67352.69;5002413;28;20224;-80
2023/11/02 03:23:32;;;;;;;0.00;0.00;;;;;;;-144.99;100.00;67352.69;5045418;28;20464;-80
2023/11/02 03:26:01;;;;;;;0.00;0.00;;;;;;;-144.99;100.00;67352.69;5002618;28;20196;-80
2023/11/02 03:28:46;;;;;;;0.20;0.20;;;;;;;-144.99;100.00;67352.69;5045030;28;20277;-80
2023/11/02 03:31:29;;;;;;;0.00;0.00;;;;;;;-144.99;100.00;67352.69;5033230;28;20186;-80
2023/11/02 03:34:24;;;;;;;0.00;0.00;;;;;;;-144.99;100.00;67352.69;5028058;28;20275;-81
2023/11/02 03:37:16;;;;;;;0.00;0.00;;;;;;;-144.99;100.00;67352.69;5002126;28;20195;-80
2023/11/02 03:39:57;;;;;;;0.00;0.00;;;;;;;-144.99;100.00;67352.69;5015717;28;20216;-80
2023/11/02 03:42:29;;;;;;;0.00;0.00;;;;;;;-144.99;100.00;67352.69;4984512;28;20181;-80
2023/11/02 03:44:57;;;;;;;0.20;0.20;;;;;;;-144.99;100.00;67352.69;5033106;28;20182;-80
2023/11/02 03:48:01;;;;;;;0.00;0.00;;;;;;;-144.99;100.00;67352.69;4999210;28;20739;-80
2023/11/02 03:50:35;;;;;;;0.00;0.00;;;;;;;-144.99;100.00;67352.69;4983633;28;20188;-80
2023/11/02 03:53:31;;;;;;;0.00;0.00;;;;;;;-144.99;100.00;67352.69;5026622;28;20642;-79
2023/11/02 03:56:13;;;;;;;0.00;0.00;;;;;;;-144.99;100.00;67352.69;5032434;28;20194;-80
2023/11/02 03:58:47;;;;;;;0.00;0.00;;;;;;;-144.99;100.00;67352.69;5025965;28;20215;-80
2023/11/02 04:01:39;;;;;;;0.00;0.00;;;;;;;-144.99;100.00;67352.69;5006694;28;20216;-80
2023/11/02 04:04:06;;;;;;;0.00;0.00;;;;;;;-144.99;100.00;67352.69;5023390;28;20276;-80
2023/11/02 04:06:50;;;;;;;0.00;0.00;;;;;;;-144.99;100.00;67352.69;5018296;28;20181;-80
2023/11/02 04:09:20;;;;;;;0.50;0.50;;;;;;;-144.99;100.00;67352.69;5021352;28;20185;-80
2023/11/02 04:11:53;;;;;;;0.00;0.00;;;;;;;-144.99;100.00;67352.69;5030664;28;20199;-79
2023/11/02 04:14:23;;;;;;;0.00;0.00;;;;;;;-144.99;100.00;67352.69;5031350;28;20262;-80
2023/11/02 04:16:48;;;;;;;0.00;0.00;;;;;;;-144.99;100.00;67352.69;4997190;28;20193;-80
2023/11/02 04:19:13;;;;;;;0.00;0.00;;;;;;;-144.99;100.00;67352.69;5029650;28;20213;-80
2023/11/02 04:21:40;;;;;;;0.00;0.00;;;;;;;-144.99;100.00;67352.69;4991436;28;20259;-80
2023/11/02 04:24:05;;;;;;;0.00;0.00;;;;;;;-144.99;100.00;67352.69;4993571;28;20211;-80
2023/11/02 04:26:32;;;;;;;0.00;0.00;;;;;;;-144.99;100.00;67352.69;5028782;28;20185;-79
2023/11/02 04:28:58;;;;;;;0.00;0.00;;;;;;;-144.99;100.00;67352.69;5030709;28;20217;-80
2023/11/02 04:31:23;;;;;;;0.00;0.00;;;;;;;-144.99;100.00;67352.69;5030871;28;20174;-80
2023/11/02 04:33:49;;;;;;;0.00;0.00;;;;;;;-144.99;100.00;67352.69;5022659;28;20602;-81
2023/11/02 04:36:14;;;;;;;0.00;0.00;;;;;;;-144.99;100.00;67352.69;5040500;28;20186;-80
2023/11/02 04:38:39;;;;;;;0.00;0.00;;;;;;;-144.99;100.00;67352.69;5043807;28;20209;-79
2023/11/02 04:41:05;;;;;;;0.00;0.00;;;;;;;-144.99;100.00;67352.69;5028467;28;20199;-79
2023/11/02 04:43:30;;;;;;;0.10;0.10;;;;;;;-144.99;100.00;67352.69;5018843;28;20185;-79
2023/11/02 04:45:56;;;;;;;0.00;0.00;;;;;;;-144.99;100.00;67352.69;5018736;28;20272;-78
2023/11/02 04:48:22;;;;;;;0.00;0.00;;;;;;;-144.99;100.00;67352.69;5036162;28;20194;-79
2023/11/02 04:50:53;;;;;;;0.00;0.00;;;;;;;-144.99;100.00;67352.69;5013619;28;20181;-79
2023/11/02 04:53:18;;;;;;;0.00;0.00;;;;;;;-144.99;100.00;67352.69;4976594;28;20606;-80
2023/11/02 04:55:43;;;;;;;0.00;0.00;;;;;;;-144.99;100.00;67352.69;5020316;28;20182;-79
2023/11/02 04:58:09;;;;;;;0.00;0.00;;;;;;;-144.99;100.00;67352.69;5036137;28;20258;-79
2023/11/02 05:00:34;;;;;;;0.00;0.00;;;;;;;-144.99;100.00;67352.69;5010147;28;20211;-78
2023/11/02 05:03:00;;;;;;;0.00;0.00;;;;;;;-144.99;100.00;67352.69;5023674;28;20231;-78
2023/11/02 05:05:25;;;;;;;0.00;0.00;;;;;;;-144.99;100.00;67352.69;5035278;28;20178;-79
2023/11/02 05:07:50;;;;;;;0.00;0.00;;;;;;;-144.99;100.00;67352.69;5033972;28;20205;-78
2023/11/02 05:10:16;;;;;;;0.00;0.00;;;;;;;-144.99;100.00;67352.69;5019204;28;20185;-78
2023/11/02 05:12:41;;;;;;;0.10;0.10;;;;;;;-144.99;100.00;67352.69;5024443;28;20188;-79
2023/11/02 05:15:07;;;;;;;0.00;0.00;;;;;;;-144.99;100.00;67352.69;4994671;28;20552;-80
2023/11/02 05:17:33;;;;;;;0.00;0.00;;;;;;;-144.99;100.00;67352.69;5012615;28;20208;-78
2023/11/02 05:19:58;;;;;;;0.00;0.00;;;;;;;-144.99;100.00;67352.69;5029158;28;20213;-79
2023/11/02 05:22:23;;;;;;;0.30;0.23;;;;;;;-144.99;100.00;67352.69;5020990;28;20284;-79
2023/11/02 05:24:48;;;;;;;0.20;0.20;;;;;;;-144.99;100.00;67352.69;5027316;28;20183;-79
2023/11/02 05:27:14;;;;;;;0.00;0.00;;;;;;;-144.99;100.00;67352.69;5000420;28;20687;-79
2023/11/02 05:29:39;;;;;;;4.47;0.50;;;;;;;-144.99;100.00;67352.69;5035266;28;20185;-79
2023/11/02 05:32:04;;;;;;;1.03;0.03;;;;;;;-144.99;100.00;67352.69;5000933;28;20185;-79
2023/11/02 05:34:30;;;;;;;0.00;0.00;;;;;;;-144.99;100.00;67352.69;5042900;28;20265;-79
2023/11/02 05:36:55;;;;;;;1.80;0.50;;;;;;;-144.99;100.00;67352.69;5033282;28;20182;-80
2023/11/02 05:39:20;;;;;;;0.00;0.00;;;;;;;-144.99;100.00;67352.69;5003413;28;20542;-80
2023/11/02 05:41:46;;;;;;;0.00;0.00;;;;;;;-144.99;100.00;67352.69;5012720;28;20180;-79
2023/11/02 05:44:12;;;;;;;0.20;0.20;;;;;;;-144.99;100.00;67352.69;5005378;28;20622;-77
2023/11/02 05:46:37;;;;;;;1.00;0.30;;;;;;;-144.99;100.00;67352.69;5017495;28;20574;-79
2023/11/02 05:49:02;;;;;;;0.87;0.50;;;;;;;-144.99;100.00;67352.69;5028325;28;20229;-79
2023/11/02 05:51:28;;;;;;;1.63;0.70;;;;;;;-144.99;100.00;67352.69;4988340;28;20181;-79
2023/11/02 05:53:53;;;;;;;0.70;0.70;;;;;;;-144.99;100.00;67352.69;5030171;28;20262;-80
2023/11/02 05:56:18;;;;;;;0.33;0.33;;;;;;;-144.99;100.00;67352.69;4979447;28;20278;-78
2023/11/02 05:58:46;;;;;;;0.00;0.00;;;;;;;-144.99;100.00;67352.69;5027912;28;20216;-79
2023/11/02 06:01:12;;;;;;;0.00;0.00;;;;;;;-144.99;100.00;67352.69;5020308;28;20206;-79
2023/11/02 06:03:37;;;;;;;0.17;0.17;;;;;;;-144.99;100.00;67352.69;5020464;28;20190;-79
2023/11/02 06:06:03;;;;;;;0.00;0.00;;;;;;;-144.99;100.00;67352.69;5001074;28;20186;-79
2023/11/02 06:08:29;;;;;;;0.10;0.10;;;;;;;-144.99;100.00;67352.69;5035423;28;20758;-79
2023/11/02 06:10:54;;;;;;;0.03;0.03;;;;;;;-144.99;100.00;67352.69;5001777;28;20210;-79
2023/11/02 06:13:19;;;;;;;0.30;0.30;;;;;;;-144.99;100.00;67352.69;5035568;28;20174;-79
2023/11/02 06:15:45;;;;;;;0.10;0.10;;;;;;;-144.99;100.00;67352.69;5042899;28;20212;-79
2023/11/02 06:18:10;;;;;;;0.20;0.20;;;;;;;-144.99;100.00;67352.69;5025031;28;20226;-79
2023/11/02 06:20:35;;;;;;;0.43;0.40;;;;;;;-144.99;100.00;67352.69;5057426;22;20220;-83
2023/11/02 06:23:04;;;;;;;0.13;0.13;;;;;;;-144.99;100.00;67352.69;5037503;28;20222;-82
2023/11/02 06:25:29;;;;;;;0.10;0.10;;;;;;;-144.99;100.00;67352.69;5038050;28;20627;-82
2023/11/02 06:27:55;;;;;;;0.10;0.10;;;;;;;-144.99;100.00;67352.69;5056083;28;20218;-82
2023/11/02 06:30:20;;;;;;;0.00;0.00;;;;;;;-144.99;100.00;67352.69;5056545;28;20600;-81
2023/11/02 06:32:49;;;;;;;0.57;0.57;;;;;;;-144.99;100.00;67352.69;5037845;28;20665;-82
2023/11/02 06:35:14;;;;;;;0.60;0.60;;;;;;;-144.99;100.00;67352.69;5037729;28;20238;-82
2023/11/02 06:38:00;;;;;;;0.00;0.00;;;;;;;-144.99;100.00;67352.69;5037094;28;20179;-82
2023/11/02 06:40:27;;;;;;;0.00;0.00;;;;;;;-144.99;100.00;67352.69;5037286;28;20234;-82
2023/11/02 06:42:56;;;;;;;0.63;0.47;;;;;;;-144.99;100.00;67352.69;5035919;28;20190;-82
2023/11/02 06:45:21;;;;;;;0.53;0.33;;;;;;;-144.99;100.00;67352.69;5035190;28;20207;-82
2023/11/02 06:47:47;;;;;;;0.33;0.20;;;;;;;-144.99;100.00;67352.69;5035435;28;20194;-81
2023/11/02 06:50:12;;;;;;;0.10;0.10;;;;;;;-144.99;100.00;67352.69;5056209;28;20202;-82
2023/11/02 06:52:38;;;;;;;0.00;0.00;;;;;;;-144.99;100.00;67352.69;5056305;28;20179;-82
2023/11/02 06:55:03;;;;;;;3.03;0.30;;;;;;;-144.99;100.00;67352.69;5037425;28;20230;-83
2023/11/02 06:57:29;;;;;;;0.10;0.10;;;;;;;-144.99;100.00;67352.69;5037636;28;20229;-83
2023/11/02 06:59:54;;;;;;;0.00;0.00;;;;;;;-144.99;100.00;67352.69;5055389;28;20344;-85
2023/11/02 07:02:22;;;;;;;0.57;0.57;;;;;;;-144.99;100.00;67352.69;5055535;28;20187;-82
2023/11/02 07:04:48;;;;;;;0.00;0.00;;;;;;;-144.99;100.00;67352.69;5034102;28;20278;-82
2023/11/02 07:07:14;;;;;;;0.00;0.00;;;;;;;-144.99;100.00;67352.69;5037414;28;20290;-81
2023/11/02 07:09:40;;;;;;;0.00;0.00;;;;;;;-144.99;100.00;67352.69;5038193;28;20645;-82
2023/11/02 07:12:05;;;;;;;0.80;0.80;;;;;;;-144.99;100.00;67352.69;5057511;28;20182;-82
2023/11/02 07:14:31;;;;;;;0.00;0.00;;;;;;;-144.99;100.00;67352.69;5031725;28;20559;-82
2023/11/02 07:16:56;;;;;;;2.63;0.87;;;;;;;-144.99;100.00;67352.69;5055347;28;20202;-82
2023/11/02 07:19:21;;;;;;;0.17;0.17;;;;;;;-144.99;100.00;67352.69;5055331;28;20213;-82
2023/11/02 07:21:47;;;;;;;0.00;0.00;;;;;;;-144.99;100.00;67352.69;5055548;28;20241;-82
2023/11/02 07:24:12;;;;;;;0.00;0.00;;;;;;;-144.99;100.00;67352.69;5055078;28;20203;-82
2023/11/02 07:26:38;;;;;;;0.93;0.30;;;;;;;-144.99;100.00;67352.69;5037734;28;20258;-82
2023/11/02 07:29:03;;;;;;;0.00;0.00;;;;;;;-144.99;100.00;67352.69;5038040;28;20251;-82
2023/11/02 07:31:29;;;;;;;0.40;0.20;;;;;;;-144.99;100.00;67352.69;5035495;28;20175;-82
2023/11/02 07:33:54;;;;;;;0.00;0.00;;;;;;;-144.99;100.00;67352.69;5052880;28;20199;-82
2023/11/02 07:36:20;;;;;;;0.00;0.00;;;;;;;-144.99;100.00;67352.69;5036706;28;20270;-82
2023/11/02 07:38:45;;;;;;;0.00;0.00;;;;;;;-144.99;100.00;67352.69;5036917;28;20175;-82
2023/11/02 07:41:11;;;;;;;0.00;0.00;;;;;;;-144.99;100.00;67352.69;5035294;28;20699;-82
2023/11/02 07:43:36;;;;;;;0.27;0.20;;;;;;;-144.99;100.00;67352.69;5035917;28;20179;-82
2023/11/02 07:46:02;;;;;;;0.00;0.00;;;;;;;-144.99;100.00;67352.69;5053252;28;20258;-82
2023/11/02 07:48:27;;;;;;;4.97;0.67;;;;;;;-144.99;100.00;67352.69;5035722;28;20297;-82
2023/11/02 07:50:55;;;;;;;0.73;0.47;;;;;;;-144.99;100.00;67352.69;5036236;28;20175;-81
2023/11/02 07:53:21;;;;;;;0.10;0.10;;;;;;;-144.99;100.00;67352.69;5053710;28;20224;-81
2023/11/02 07:55:46;;;;;;;0.60;0.60;;;;;;;-144.99;100.00;67352.69;5035568;28;20199;-82
2023/11/02 07:58:13;;;;;;;0.00;0.00;;;;;;;-144.99;100.00;67352.69;5053522;28;20543;-81
2023/11/02 08:00:38;;;;;;;0.23;0.10;;;;;;;-144.99;100.00;67352.69;5035172;28;20203;-81
2023/11/02 08:03:03;;;;;;;0.10;0.10;;;;;;;-144.99;100.00;67352.69;5053325;28;20187;-82
2023/11/02 08:05:29;;;;;;;0.50;0.10;;;;;;;-144.99;100.00;67352.69;5035417;28;20754;-83
2023/11/02 08:07:54;;;;;;;0.00;0.00;;;;;;;-144.99;100.00;67352.69;5035375;28;20202;-81
2023/11/02 08:10:19;;;;;;;0.00;0.00;;;;;;;-144.99;100.00;67352.69;5053378;28;20210;-82
2023/11/02 08:12:45;;;;;;;0.43;0.17;;;;;;;-144.99;100.00;67352.69;5035299;28;20178;-82
2023/11/02 08:15:10;;;;;;;0.00;0.00;;;;;;;-144.99;100.00;67352.69;5035084;28;20199;-84
2023/11/02 08:17:36;;;;;;;0.20;0.20;;;;;;;-144.99;100.00;67352.69;5053252;28;20233;-84
2023/11/02 08:20:02;;;;;;;0.00;0.00;;;;;;;-144.99;100.00;67352.69;5035168;28;20203;-85
2023/11/02 08:22:28;;;;;;;0.00;0.00;;;;;;;-144.99;100.00;67352.69;5035239;28;20191;-83
2023/11/02 08:24:53;;;;;;;0.37;0.37;;;;;;;-144.99;100.00;67352.69;5034887;28;20203;-81
2023/11/02 08:27:19;;;;;;;0.00;0.00;;;;;;;-144.99;100.00;67352.69;5035558;28;20210;-81
2023/11/02 08:29:45;;;;;;;0.10;0.10;;;;;;;-144.99;100.00;67352.69;5035418;28;20171;-81
2023/11/02 08:32:10;;;;;;;0.10;0.10;;;;;;;-144.99;100.00;67352.69;5052752;28;20175;-81
2023/11/02 08:34:40;;;;;;;0.00;0.00;;;;;;;-144.99;100.00;67352.69;5033878;28;20202;-81
2023/11/02 08:37:05;;;;;;;0.97;0.27;;;;;;;-144.99;100.00;67352.69;5034905;28;20171;-81
2023/11/02 08:39:31;;;;;;;0.00;0.00;;;;;;;-144.99;100.00;67352.69;5034811;28;20688;-81
2023/11/02 08:41:57;;;;;;;0.00;0.00;;;;;;;-144.99;100.00;67352.69;5035180;28;20657;-81
2023/11/02 08:44:22;;;;;;;0.00;0.00;;;;;;;-144.99;100.00;67352.69;5035222;28;20202;-82
2023/11/02 08:46:47;;;;;;;1.17;0.67;;;;;;;-144.99;100.00;67352.69;5053018;28;20175;-82
2023/11/02 08:49:14;;;;;;;2.10;0.70;;;;;;;-144.99;100.00;67352.69;5052919;28;20191;-82
2023/11/02 08:51:39;;;;;;;0.30;0.30;;;;;;;-144.99;100.00;67352.69;5034974;28;20193;-81
2023/11/02 08:54:04;;;;;;;0.67;0.50;;;;;;;-144.99;100.00;67352.69;5053314;28;20199;-82
2023/11/02 08:56:30;;;;;;;0.20;0.20;;;;;;;-144.99;100.00;67352.69;5039680;28;20183;-81
2023/11/02 08:58:55;;;;;;;0.07;0.07;;;;;;;-144.99;100.00;67352.69;5057382;28;20182;-82
2023/11/02 09:01:26;;;;;;;0.10;0.10;;;;;;;-144.99;100.00;67352.69;5039482;28;20199;-82
2023/11/02 09:03:54;;;;;;;0.10;0.10;;;;;;;-144.99;100.00;67352.69;5039221;28;20210;-82
2023/11/02 09:06:20;;;;;;;0.37;0.37;;;;;;;-144.99;100.00;67352.69;5039368;28;20228;-82
2023/11/02 09:08:46;;;;;;;0.60;0.30;;;;;;;-144.99;100.00;67352.69;5038814;28;20679;-82
2023/11/02 09:11:12;;;;;;;0.00;0.00;;;;;;;-144.99;100.00;67352.69;5038421;28;20180;-82
2023/11/02 09:13:38;;;;;;;0.83;0.43;;;;;;;-144.99;100.00;67352.69;5054537;28;20548;-82
2023/11/02 09:16:04;;;;;;;0.37;0.20;;;;;;;-144.99;100.00;67352.69;5055706;28;20191;-81
2023/11/02 09:18:30;;;;;;;0.00;0.00;;;;;;;-144.99;100.00;67352.69;5055513;28;20201;-83
2023/11/02 09:20:55;;;;;;;0.07;0.07;;;;;;;-144.99;100.00;67352.69;5036967;28;20283;-82
2023/11/02 09:23:20;;;;;;;1.07;0.70;;;;;;;-144.99;100.00;67352.69;5037758;28;20214;-82
2023/11/02 09:25:46;;;;;;;0.00;0.00;;;;;;;-144.99;100.00;67352.69;5055612;28;20548;-82
2023/11/02 09:28:16;;;;;;;0.00;0.00;;;;;;;-144.99;100.00;67352.69;5037816;28;20182;-82
2023/11/02 09:30:43;;;;;;;3.40;0.40;;;;;;;-144.99;100.00;67352.69;5037788;28;20187;-82
2023/11/02 09:33:08;;;;;;;0.00;0.00;;;;;;;-144.99;100.00;67352.69;5055731;28;20175;-82
2023/11/02 09:35:34;;;;;;;0.80;0.23;;;;;;;-144.99;100.00;67352.69;5055466;28;20750;-82
2023/11/02 09:37:59;;;;;;;0.73;0.60;;;;;;;-144.99;100.00;67352.69;5055369;28;20187;-82
2023/11/02 09:40:25;;;;;;;0.10;0.10;;;;;;;-144.99;100.00;67352.69;5054776;28;20568;-82
2023/11/02 09:42:51;;;;;;;1.07;0.50;;;;;;;-144.99;100.00;67352.69;5036985;28;20209;-82
2023/11/02 09:45:17;;;;;;;0.17;0.13;;;;;;;-144.99;100.00;67352.69;5053509;28;20213;-82
2023/11/02 09:47:45;;;;;;;0.20;0.20;;;;;;;-144.99;100.00;67352.69;5055958;28;20179;-82
2023/11/02 09:50:11;;;;;;;0.67;0.33;;;;;;;-144.99;100.00;67352.69;5036687;28;20616;-82
2023/11/02 09:52:37;;;;;;;0.57;0.43;;;;;;;-144.99;100.00;67352.69;5037102;28;20262;-82
2023/11/02 09:55:03;;;;;;;1.00;0.40;;;;;;;-144.99;100.00;67352.69;5054640;28;20597;-82
2023/11/02 09:57:31;;;;;;;1.23;0.43;;;;;;;-144.99;100.00;67352.69;5054230;28;20224;-82
2023/11/02 09:59:57;;;;;;;0.10;0.10;;;;;;;-144.99;100.00;67352.69;5034389;28;20739;-82
2023/11/02 10:02:24;;;;;;;0.00;0.00;;;;;;;-144.99;100.00;67352.69;5036164;28;20178;-82
2023/11/02 10:04:49;;;;;;;0.10;0.10;;;;;;;-144.99;100.00;67352.69;5036479;28;20576;-82
2023/11/02 10:07:15;;;;;;;0.97;0.83;;;;;;;-144.99;100.00;67352.69;5035813;28;20179;-82
2023/11/02 10:09:41;;;;;;;6.43;0.63;;;;;;;-144.99;100.00;67352.69;5054095;28;20179;-82
2023/11/02 10:12:07;;;;;;;3.20;0.00;;;;;;;-144.99;100.00;67352.69;5035650;28;20183;-82
2023/11/02 10:14:34;;;;;;;0.10;0.10;;;;;;;-144.99;100.00;67352.69;5035567;28;20209;-82
2023/11/02 10:17:06;;;;;;;0.40;0.17;;;;;;;-144.99;100.00;67352.69;5053230;28;20179;-82
2023/11/02 10:19:32;;;;;;;0.03;0.03;;;;;;;-144.99;100.00;67352.69;5035146;28;20205;-82
2023/11/02 10:21:58;;;;;;;0.00;0.00;;;;;;;-144.99;100.00;67352.69;5035138;28;20195;-81
2023/11/02 10:24:32;;;;;;;0.10;0.10;;;;;;;-144.99;100.00;67352.69;5055931;28;20667;-82
2023/11/02 10:26:58;;;;;;;0.00;0.00;;;;;;;-144.99;100.00;67352.69;5053677;28;20174;-81
2023/11/02 10:29:25;;;;;;;0.00;0.00;;;;;;;-144.99;100.00;67352.69;5038572;28;20261;-82
2023/11/02 10:31:54;;;;;;;0.23;0.23;;;;;;;-144.99;100.00;67352.69;5056835;28;20171;-82
2023/11/02 10:34:25;;;;;;;0.00;0.00;;;;;;;-144.99;100.00;67352.69;5038075;28;20207;-82
2023/11/02 10:36:51;;;;;;;0.00;0.00;;;;;;;-144.99;100.00;67352.69;5056968;28;20207;-82
2023/11/02 10:39:24;;;;;;;0.33;0.10;;;;;;;-144.99;100.00;67352.69;5056850;28;20273;-82
2023/11/02 10:41:59;;;;;;;2.30;0.57;;;;;;;-144.99;100.00;67352.69;5055521;28;20199;-81
2023/11/02 10:44:29;;;;;;;0.00;0.00;;;;;;;-144.99;100.00;67352.69;5038154;28;20598;-82
2023/11/02 10:47:01;;;;;;;0.80;0.80;;;;;;;-144.99;100.00;67352.69;5038226;28;20194;-81
2023/11/02 10:49:31;;;;;;;0.93;0.60;;;;;;;-144.99;100.00;67352.69;5038084;28;20182;-81
2023/11/02 10:52:00;;;;;;;0.00;0.00;;;;;;;-144.99;100.00;67352.69;5056084;28;20262;-82
2023/11/02 10:54:44;;;;;;;0.37;0.37;;;;;;;-144.99;100.00;67352.69;5057488;28;20206;-81
2023/11/02 10:57:17;;;;;;;0.10;0.10;;;;;;;-144.99;100.00;67352.69;5055255;28;20232;-82
2023/11/02 10:59:44;;;;;;;0.23;0.23;;;;;;;-144.99;100.00;67352.69;5056104;28;20179;-82
2023/11/02 11:02:11;;;;;;;3.73;0.93;;;;;;;-144.99;100.00;67352.69;5055572;28;20650;-82
2023/11/02 11:04:41;;;;;;;0.70;0.70;;;;;;;-144.99;100.00;67352.69;5037329;28;20229;-81
2023/11/02 11:07:11;;;;;;;0.00;0.00;;;;;;;-144.99;100.00;67352.69;5037445;28;20198;-82
2023/11/02 11:09:38;;;;;;;0.10;0.10;;;;;;;-144.99;100.00;67352.69;5055535;28;20195;-82
2023/11/02 11:12:04;;;;;;;0.23;0.23;;;;;;;-144.99;100.00;67352.69;5054252;28;20652;-81
2023/11/02 11:14:30;;;;;;;0.00;0.00;;;;;;;-144.99;100.00;67352.69;5054134;28;20570;-81
2023/11/02 11:16:57;;;;;;;0.03;0.03;;;;;;;-144.99;100.00;67352.69;5054262;28;20176;-81
2023/11/02 11:19:23;;;;;;;0.17;0.10;;;;;;;-144.99;100.00;67352.69;5036359;28;20783;-81
2023/11/02 11:21:51;;;;;;;2.90;0.37;;;;;;;-144.99;100.00;67352.69;5054080;28;20220;-82